createdAt,value
2022-10-31T00:01:23.548Z,1013.64
2022-10-31T00:04:23.326Z,1013.65
2022-10-31T00:05:23.889Z,1013.66
2022-10-31T00:07:23.159Z,1013.66
2022-10-31T00:09:22.939Z,1013.71
2022-10-31T00:10:22.891Z,1013.71
2022-10-31T00:11:23.482Z,1013.78
2022-10-31T00:12:22.855Z,1013.77
2022-10-31T00:14:22.821Z,1013.74
2022-10-31T00:15:22.807Z,1013.76
2022-10-31T00:20:23.453Z,1013.76
2022-10-31T00:21:23.253Z,1013.81
2022-10-31T00:22:23.413Z,1013.86
2022-10-31T00:23:22.893Z,1013.87
2022-10-31T00:24:22.657Z,1013.86
2022-10-31T00:26:24.098Z,1013.82
2022-10-31T00:27:22.624Z,1013.87
2022-10-31T00:28:22.589Z,1013.84
2022-10-31T00:29:23.091Z,1013.84
2022-10-31T00:30:23.914Z,1013.84
2022-10-31T00:31:22.871Z,1013.78
2022-10-31T00:32:22.745Z,1013.79
2022-10-31T00:33:22.502Z,1013.77
2022-10-31T00:34:22.702Z,1013.75
2022-10-31T00:35:22.706Z,1013.80
2022-10-31T00:36:22.700Z,1013.81
2022-10-31T00:37:23.187Z,1013.85
2022-10-31T00:38:22.742Z,1013.83
2022-10-31T00:41:23.125Z,1013.83
2022-10-31T00:43:22.949Z,1013.83
2022-10-31T00:44:23.042Z,1013.84
2022-10-31T00:45:22.293Z,1013.87
2022-10-31T00:46:22.275Z,1013.86
2022-10-31T00:47:22.261Z,1013.83
2022-10-31T00:48:22.245Z,1013.85
2022-10-31T00:49:22.224Z,1013.81
2022-10-31T00:50:22.209Z,1013.80
2022-10-31T00:51:22.193Z,1013.81
2022-10-31T00:52:22.172Z,1013.82
2022-10-31T00:53:23.073Z,1013.80
2022-10-31T00:54:22.147Z,1013.80
2022-10-31T00:55:22.127Z,1013.78
2022-10-31T00:56:22.109Z,1013.79
2022-10-31T00:57:22.147Z,1013.77
2022-10-31T00:58:22.292Z,1013.81
2022-10-31T01:00:22.039Z,1013.79
2022-10-31T01:01:22.150Z,1013.76
2022-10-31T01:02:22.955Z,1013.79
2022-10-31T01:03:22.021Z,1013.78
2022-10-31T01:04:21.988Z,1013.78
2022-10-31T01:08:22.107Z,1013.84
2022-10-31T01:09:21.890Z,1013.84
2022-10-31T01:10:21.871Z,1013.83
2022-10-31T01:11:22.202Z,1013.85
2022-10-31T01:12:21.834Z,1013.83
2022-10-31T01:14:22.007Z,1013.81
2022-10-31T01:15:21.796Z,1013.82
2022-10-31T01:16:21.767Z,1013.85
2022-10-31T01:17:21.747Z,1013.80
2022-10-31T01:18:21.737Z,1013.82
2022-10-31T01:19:21.724Z,1013.78
2022-10-31T01:20:21.703Z,1013.77
2022-10-31T01:21:21.681Z,1013.82
2022-10-31T01:22:21.665Z,1013.80
2022-10-31T01:23:21.654Z,1013.81
2022-10-31T01:24:21.633Z,1013.82
2022-10-31T01:25:21.613Z,1013.84
2022-10-31T01:26:27.863Z,1013.85
2022-10-31T01:27:21.576Z,1013.93
2022-10-31T01:28:21.681Z,1013.92
2022-10-31T01:29:21.571Z,1013.96
2022-10-31T01:30:21.527Z,1013.97
2022-10-31T01:31:21.512Z,1013.93
2022-10-31T01:32:21.489Z,1013.95
2022-10-31T01:33:21.478Z,1013.99
2022-10-31T01:34:21.459Z,1014.01
2022-10-31T01:35:21.438Z,1013.98
2022-10-31T01:36:21.424Z,1013.96
2022-10-31T01:37:21.407Z,1014.00
2022-10-31T01:38:21.392Z,1014.01
2022-10-31T01:39:21.371Z,1013.96
2022-10-31T01:40:21.354Z,1013.96
2022-10-31T01:41:21.338Z,1013.92
2022-10-31T01:42:21.322Z,1013.92
2022-10-31T01:44:21.285Z,1013.92
2022-10-31T01:45:21.291Z,1013.94
2022-10-31T01:46:21.257Z,1013.95
2022-10-31T01:47:21.238Z,1013.96
2022-10-31T01:48:21.216Z,1013.99
2022-10-31T01:49:21.204Z,1013.95
2022-10-31T01:50:21.181Z,1013.97
2022-10-31T01:51:21.167Z,1014.00
2022-10-31T01:52:21.144Z,1014.00
2022-10-31T01:53:25.929Z,1014.02
2022-10-31T01:54:21.118Z,1014.00
2022-10-31T01:55:21.095Z,1013.95
2022-10-31T01:56:21.079Z,1013.90
2022-10-31T01:57:21.063Z,1013.91
2022-10-31T01:58:21.059Z,1013.88
2022-10-31T01:59:21.037Z,1013.87
2022-10-31T02:00:21.015Z,1013.84
2022-10-31T02:01:21.163Z,1013.84
2022-10-31T02:02:21.115Z,1013.85
2022-10-31T02:03:20.958Z,1013.84
2022-10-31T02:04:20.941Z,1013.78
2022-10-31T02:05:20.921Z,1013.70
2022-10-31T02:06:20.903Z,1013.71
2022-10-31T02:07:20.887Z,1013.78
2022-10-31T02:08:20.868Z,1013.82
2022-10-31T02:09:20.851Z,1013.81
2022-10-31T02:10:20.833Z,1013.81
2022-10-31T02:11:20.817Z,1013.84
2022-10-31T02:12:20.808Z,1013.84
2022-10-31T02:13:20.855Z,1013.86
2022-10-31T02:14:20.765Z,1013.88
2022-10-31T02:15:20.751Z,1013.91
2022-10-31T02:16:20.728Z,1013.94
2022-10-31T02:17:20.732Z,1013.91
2022-10-31T02:18:20.695Z,1013.93
2022-10-31T02:19:20.681Z,1013.93
2022-10-31T02:20:20.655Z,1013.95
2022-10-31T02:21:20.641Z,1014.02
2022-10-31T02:22:20.625Z,1014.05
2022-10-31T02:23:20.606Z,1014.04
2022-10-31T02:24:20.593Z,1014.03
2022-10-31T02:25:20.569Z,1014.05
2022-10-31T02:26:20.556Z,1014.08
2022-10-31T02:27:20.536Z,1014.10
2022-10-31T02:28:20.520Z,1014.07
2022-10-31T02:29:20.506Z,1014.06
2022-10-31T02:30:20.497Z,1014.05
2022-10-31T02:31:20.466Z,1014.02
2022-10-31T02:32:20.447Z,1014.03
2022-10-31T02:33:20.452Z,1014.02
2022-10-31T02:34:20.420Z,1014.05
2022-10-31T02:35:20.398Z,1014.04
2022-10-31T02:36:20.381Z,1014.06
2022-10-31T02:37:20.365Z,1014.05
2022-10-31T02:38:20.347Z,1014.03
2022-10-31T02:39:20.332Z,1013.99
2022-10-31T02:40:20.312Z,1014.01
2022-10-31T02:41:20.297Z,1013.99
2022-10-31T02:42:20.279Z,1013.99
2022-10-31T02:43:20.263Z,1014.01
2022-10-31T02:44:20.241Z,1014.00
2022-10-31T02:45:20.226Z,1014.03
2022-10-31T02:46:20.207Z,1014.01
2022-10-31T02:47:20.188Z,1014.08
2022-10-31T02:48:20.170Z,1014.10
2022-10-31T02:49:20.251Z,1014.07
2022-10-31T02:50:20.139Z,1014.07
2022-10-31T02:51:20.117Z,1014.08
2022-10-31T02:52:20.104Z,1014.04
2022-10-31T02:53:20.087Z,1013.99
2022-10-31T02:54:20.068Z,1013.97
2022-10-31T02:55:20.051Z,1013.92
2022-10-31T02:56:20.035Z,1013.94
2022-10-31T02:57:20.018Z,1013.94
2022-10-31T02:59:19.979Z,1013.90
2022-10-31T03:00:19.962Z,1013.86
2022-10-31T03:01:20.096Z,1013.89
2022-10-31T03:02:20.071Z,1013.89
2022-10-31T03:03:19.907Z,1013.93
2022-10-31T03:04:19.891Z,1013.91
2022-10-31T03:05:19.893Z,1013.88
2022-10-31T03:06:19.855Z,1013.86
2022-10-31T03:07:19.837Z,1013.84
2022-10-31T03:08:19.818Z,1013.85
2022-10-31T03:09:19.801Z,1013.83
2022-10-31T03:10:19.787Z,1013.83
2022-10-31T03:11:19.764Z,1013.79
2022-10-31T03:12:19.753Z,1013.85
2022-10-31T03:13:19.776Z,1013.83
2022-10-31T03:14:19.718Z,1013.86
2022-10-31T03:15:19.696Z,1013.84
2022-10-31T03:16:19.683Z,1013.88
2022-10-31T03:17:19.668Z,1013.89
2022-10-31T03:18:19.649Z,1013.86
2022-10-31T03:19:19.623Z,1013.90
2022-10-31T03:20:19.611Z,1013.87
2022-10-31T03:21:19.610Z,1013.88
2022-10-31T03:22:19.575Z,1013.92
2022-10-31T03:23:19.559Z,1013.89
2022-10-31T03:24:19.534Z,1013.93
2022-10-31T03:25:19.524Z,1013.96
2022-10-31T03:26:19.503Z,1013.93
2022-10-31T03:27:19.483Z,1013.95
2022-10-31T03:29:19.452Z,1014.00
2022-10-31T03:30:19.431Z,1014.00
2022-10-31T03:31:19.415Z,1013.99
2022-10-31T03:32:19.400Z,1013.98
2022-10-31T03:33:19.381Z,1013.98
2022-10-31T03:34:19.370Z,1014.00
2022-10-31T03:35:19.342Z,1013.97
2022-10-31T03:36:19.328Z,1013.93
2022-10-31T03:37:19.327Z,1013.92
2022-10-31T03:38:19.313Z,1013.94
2022-10-31T03:39:19.271Z,1013.93
2022-10-31T03:40:19.260Z,1013.91
2022-10-31T03:41:19.236Z,1013.95
2022-10-31T03:42:19.214Z,1013.92
2022-10-31T03:43:19.266Z,1013.94
2022-10-31T03:44:19.186Z,1013.92
2022-10-31T03:45:19.169Z,1013.89
2022-10-31T03:46:19.147Z,1013.88
2022-10-31T03:47:19.131Z,1013.88
2022-10-31T03:48:19.112Z,1013.93
2022-10-31T03:49:19.094Z,1013.90
2022-10-31T03:50:19.078Z,1013.90
2022-10-31T03:51:19.060Z,1013.94
2022-10-31T03:52:19.051Z,1013.91
2022-10-31T03:53:19.044Z,1013.93
2022-10-31T03:54:19.009Z,1013.93
2022-10-31T03:55:18.988Z,1013.94
2022-10-31T03:56:18.976Z,1013.93
2022-10-31T03:57:18.955Z,1013.94
2022-10-31T03:59:18.919Z,1013.97
2022-10-31T04:00:18.903Z,1013.97
2022-10-31T04:01:19.024Z,1013.96
2022-10-31T04:02:19.099Z,1013.94
2022-10-31T04:03:18.844Z,1013.95
2022-10-31T04:04:18.829Z,1013.96
2022-10-31T04:05:18.806Z,1013.97
2022-10-31T04:06:18.794Z,1013.93
2022-10-31T04:07:18.773Z,1013.99
2022-10-31T04:08:18.756Z,1013.99
2022-10-31T04:09:18.760Z,1014.04
2022-10-31T04:10:18.721Z,1014.05
2022-10-31T04:11:18.703Z,1014.00
2022-10-31T04:12:18.686Z,1014.01
2022-10-31T04:14:18.650Z,1014.02
2022-10-31T04:15:18.626Z,1013.99
2022-10-31T04:16:18.614Z,1014.01
2022-10-31T04:17:18.590Z,1014.01
2022-10-31T04:18:18.572Z,1014.04
2022-10-31T04:19:18.557Z,1014.00
2022-10-31T04:20:18.536Z,1013.99
2022-10-31T04:21:18.519Z,1013.98
2022-10-31T04:22:18.500Z,1013.95
2022-10-31T04:23:18.481Z,1013.92
2022-10-31T04:24:18.465Z,1013.90
2022-10-31T04:25:18.470Z,1013.90
2022-10-31T04:26:18.428Z,1013.91
2022-10-31T04:27:18.410Z,1013.86
2022-10-31T04:29:18.372Z,1013.87
2022-10-31T04:30:18.359Z,1013.90
2022-10-31T04:31:18.339Z,1013.89
2022-10-31T04:32:18.319Z,1013.93
2022-10-31T04:33:18.302Z,1013.93
2022-10-31T04:34:18.291Z,1013.92
2022-10-31T04:35:18.262Z,1013.97
2022-10-31T04:36:18.244Z,1013.96
2022-10-31T04:37:18.227Z,1013.95
2022-10-31T04:38:18.210Z,1014.01
2022-10-31T04:39:22.654Z,1014.01
2022-10-31T04:40:18.174Z,1013.99
2022-10-31T04:41:18.176Z,1014.01
2022-10-31T04:42:18.135Z,1014.00
2022-10-31T04:43:18.124Z,1013.96
2022-10-31T04:44:18.099Z,1013.93
2022-10-31T04:45:21.086Z,1013.94
2022-10-31T04:46:18.066Z,1013.93
2022-10-31T04:47:18.052Z,1013.93
2022-10-31T04:48:18.028Z,1013.91
2022-10-31T04:49:18.010Z,1013.88
2022-10-31T04:50:17.992Z,1013.88
2022-10-31T04:51:17.974Z,1013.95
2022-10-31T04:52:17.956Z,1013.92
2022-10-31T04:53:17.939Z,1013.94
2022-10-31T04:54:17.916Z,1013.92
2022-10-31T04:55:17.902Z,1013.90
2022-10-31T04:56:17.880Z,1013.92
2022-10-31T04:57:17.882Z,1013.92
2022-10-31T04:58:17.898Z,1013.91
2022-10-31T04:59:17.829Z,1013.87
2022-10-31T05:00:17.825Z,1013.90
2022-10-31T05:01:17.907Z,1013.88
2022-10-31T05:02:17.828Z,1013.89
2022-10-31T05:03:17.752Z,1013.90
2022-10-31T05:04:17.735Z,1013.94
2022-10-31T05:05:17.716Z,1013.95
2022-10-31T05:06:17.699Z,1013.91
2022-10-31T05:07:17.676Z,1013.89
2022-10-31T05:08:17.667Z,1013.89
2022-10-31T05:09:17.642Z,1013.87
2022-10-31T05:10:17.624Z,1013.87
2022-10-31T05:11:17.605Z,1013.88
2022-10-31T05:12:17.585Z,1013.87
2022-10-31T05:13:17.674Z,1013.80
2022-10-31T05:14:17.553Z,1013.79
2022-10-31T05:15:17.529Z,1013.83
2022-10-31T05:16:17.512Z,1013.79
2022-10-31T05:17:17.496Z,1013.79
2022-10-31T05:18:17.476Z,1013.79
2022-10-31T05:19:17.461Z,1013.79
2022-10-31T05:20:17.435Z,1013.79
2022-10-31T05:21:17.416Z,1013.81
2022-10-31T05:22:17.406Z,1013.85
2022-10-31T05:23:17.387Z,1013.84
2022-10-31T05:24:17.369Z,1013.80
2022-10-31T05:25:17.352Z,1013.73
2022-10-31T05:26:17.327Z,1013.74
2022-10-31T05:27:17.313Z,1013.68
2022-10-31T05:28:17.290Z,1013.68
2022-10-31T05:29:17.293Z,1013.65
2022-10-31T05:30:17.265Z,1013.66
2022-10-31T05:31:17.266Z,1013.66
2022-10-31T05:32:17.214Z,1013.69
2022-10-31T05:33:17.218Z,1013.69
2022-10-31T05:34:17.177Z,1013.68
2022-10-31T05:35:17.164Z,1013.69
2022-10-31T05:36:17.139Z,1013.72
2022-10-31T05:37:17.119Z,1013.72
2022-10-31T05:38:17.100Z,1013.74
2022-10-31T05:39:17.087Z,1013.75
2022-10-31T05:40:17.065Z,1013.74
2022-10-31T05:41:17.053Z,1013.77
2022-10-31T05:42:17.029Z,1013.79
2022-10-31T05:43:17.014Z,1013.80
2022-10-31T05:44:16.992Z,1013.79
2022-10-31T05:45:16.993Z,1013.74
2022-10-31T05:46:16.961Z,1013.73
2022-10-31T05:47:16.935Z,1013.76
2022-10-31T05:48:16.921Z,1013.71
2022-10-31T05:49:16.902Z,1013.72
2022-10-31T05:50:16.881Z,1013.68
2022-10-31T05:51:16.863Z,1013.71
2022-10-31T05:52:16.847Z,1013.68
2022-10-31T05:53:16.832Z,1013.70
2022-10-31T05:54:16.810Z,1013.74
2022-10-31T05:55:16.790Z,1013.70
2022-10-31T05:56:16.769Z,1013.73
2022-10-31T05:57:16.753Z,1013.74
2022-10-31T05:58:16.732Z,1013.76
2022-10-31T05:59:16.717Z,1013.72
2022-10-31T06:00:16.697Z,1013.71
2022-10-31T06:01:16.789Z,1013.71
2022-10-31T06:02:16.657Z,1013.69
2022-10-31T06:03:16.644Z,1013.68
2022-10-31T06:04:16.684Z,1013.68
2022-10-31T06:05:16.601Z,1013.71
2022-10-31T06:06:16.584Z,1013.69
2022-10-31T06:07:16.571Z,1013.71
2022-10-31T06:08:16.549Z,1013.71
2022-10-31T06:09:16.531Z,1013.70
2022-10-31T06:10:16.509Z,1013.71
2022-10-31T06:11:16.490Z,1013.71
2022-10-31T06:12:16.474Z,1013.70
2022-10-31T06:13:16.458Z,1013.71
2022-10-31T06:14:16.444Z,1013.74
2022-10-31T06:15:21.058Z,1013.72
2022-10-31T06:16:16.397Z,1013.72
2022-10-31T06:17:16.396Z,1013.70
2022-10-31T06:18:16.357Z,1013.73
2022-10-31T06:19:16.343Z,1013.71
2022-10-31T06:20:16.321Z,1013.74
2022-10-31T06:21:18.914Z,1013.75
2022-10-31T06:22:16.285Z,1013.79
2022-10-31T06:23:16.271Z,1013.80
2022-10-31T06:24:16.244Z,1013.78
2022-10-31T06:25:16.227Z,1013.72
2022-10-31T06:26:16.207Z,1013.74
2022-10-31T06:27:16.191Z,1013.76
2022-10-31T06:28:16.172Z,1013.75
2022-10-31T06:29:16.159Z,1013.74
2022-10-31T06:30:16.134Z,1013.70
2022-10-31T06:31:16.113Z,1013.74
2022-10-31T06:32:16.094Z,1013.73
2022-10-31T06:33:16.090Z,1013.78
2022-10-31T06:34:16.057Z,1013.82
2022-10-31T06:35:16.037Z,1013.83
2022-10-31T06:36:16.082Z,1013.81
2022-10-31T06:37:16.005Z,1013.82
2022-10-31T06:38:15.987Z,1013.78
2022-10-31T06:39:15.981Z,1013.77
2022-10-31T06:40:15.944Z,1013.75
2022-10-31T06:41:15.926Z,1013.79
2022-10-31T06:42:15.910Z,1013.82
2022-10-31T06:43:15.894Z,1013.81
2022-10-31T06:44:15.870Z,1013.81
2022-10-31T06:45:15.852Z,1013.83
2022-10-31T06:46:15.832Z,1013.83
2022-10-31T06:47:15.815Z,1013.80
2022-10-31T06:48:17.615Z,1013.80
2022-10-31T06:49:15.795Z,1013.81
2022-10-31T06:50:15.753Z,1013.84
2022-10-31T06:51:15.743Z,1013.84
2022-10-31T06:52:15.716Z,1013.82
2022-10-31T06:53:15.710Z,1013.84
2022-10-31T06:54:15.687Z,1013.83
2022-10-31T06:55:15.668Z,1013.84
2022-10-31T06:56:15.645Z,1013.89
2022-10-31T06:57:15.627Z,1013.89
2022-10-31T06:58:15.607Z,1013.90
2022-10-31T06:59:15.593Z,1013.93
2022-10-31T07:00:15.603Z,1013.93
2022-10-31T07:01:15.697Z,1013.97
2022-10-31T07:02:15.698Z,1013.99
2022-10-31T07:03:15.515Z,1014.02
2022-10-31T07:04:15.507Z,1014.05
2022-10-31T07:05:15.500Z,1014.06
2022-10-31T07:06:15.467Z,1014.02
2022-10-31T07:07:15.461Z,1014.01
2022-10-31T07:08:15.428Z,1014.02
2022-10-31T07:09:15.406Z,1014.05
2022-10-31T07:10:15.390Z,1014.05
2022-10-31T07:11:15.372Z,1013.97
2022-10-31T07:12:15.352Z,1014.08
2022-10-31T07:13:15.339Z,1014.06
2022-10-31T07:14:15.318Z,1014.10
2022-10-31T07:15:15.296Z,1014.09
2022-10-31T07:16:15.287Z,1014.14
2022-10-31T07:17:15.262Z,1014.15
2022-10-31T07:18:15.242Z,1014.16
2022-10-31T07:19:15.225Z,1014.17
2022-10-31T07:20:15.217Z,1014.19
2022-10-31T07:21:15.207Z,1014.15
2022-10-31T07:22:15.175Z,1014.14
2022-10-31T07:23:15.161Z,1014.12
2022-10-31T07:24:15.136Z,1014.15
2022-10-31T07:25:15.119Z,1014.12
2022-10-31T07:26:15.103Z,1014.11
2022-10-31T07:27:15.090Z,1014.09
2022-10-31T07:28:15.072Z,1014.06
2022-10-31T07:29:15.055Z,1014.11
2022-10-31T07:30:15.036Z,1014.09
2022-10-31T07:31:15.025Z,1014.12
2022-10-31T07:32:15.003Z,1014.12
2022-10-31T07:33:14.986Z,1014.13
2022-10-31T07:34:14.975Z,1014.11
2022-10-31T07:35:14.955Z,1014.20
2022-10-31T07:36:14.934Z,1014.19
2022-10-31T07:37:14.937Z,1014.22
2022-10-31T07:38:14.897Z,1014.21
2022-10-31T07:39:14.885Z,1014.18
2022-10-31T07:40:14.869Z,1014.20
2022-10-31T07:41:14.848Z,1014.20
2022-10-31T07:42:14.834Z,1014.24
2022-10-31T07:43:14.928Z,1014.24
2022-10-31T07:44:14.801Z,1014.23
2022-10-31T07:45:14.789Z,1014.26
2022-10-31T07:46:14.764Z,1014.21
2022-10-31T07:47:14.749Z,1014.27
2022-10-31T07:48:14.731Z,1014.23
2022-10-31T07:49:14.744Z,1014.24
2022-10-31T07:50:14.693Z,1014.28
2022-10-31T07:51:14.688Z,1014.28
2022-10-31T07:52:14.662Z,1014.29
2022-10-31T07:53:14.678Z,1014.29
2022-10-31T07:54:14.630Z,1014.30
2022-10-31T07:55:14.613Z,1014.25
2022-10-31T07:56:14.592Z,1014.25
2022-10-31T07:57:15.880Z,1014.22
2022-10-31T07:58:14.567Z,1014.22
2022-10-31T07:59:14.547Z,1014.22
2022-10-31T08:00:14.560Z,1014.22
2022-10-31T08:01:14.513Z,1014.21
2022-10-31T08:02:14.497Z,1014.20
2022-10-31T08:03:14.482Z,1014.24
2022-10-31T08:04:14.462Z,1014.19
2022-10-31T08:05:14.452Z,1014.19
2022-10-31T08:06:14.427Z,1014.17
2022-10-31T08:07:14.411Z,1014.12
2022-10-31T08:08:14.404Z,1014.14
2022-10-31T08:09:14.420Z,1014.12
2022-10-31T08:10:14.365Z,1014.11
2022-10-31T08:11:14.358Z,1014.17
2022-10-31T08:12:14.335Z,1014.17
2022-10-31T08:13:14.316Z,1014.14
2022-10-31T08:14:14.300Z,1014.19
2022-10-31T08:15:14.288Z,1014.18
2022-10-31T08:16:14.271Z,1014.15
2022-10-31T08:17:14.254Z,1014.14
2022-10-31T08:18:14.246Z,1014.12
2022-10-31T08:19:14.227Z,1014.12
2022-10-31T08:20:14.212Z,1014.12
2022-10-31T08:21:14.191Z,1014.14
2022-10-31T08:22:14.178Z,1014.19
2022-10-31T08:23:14.159Z,1014.24
2022-10-31T08:24:14.141Z,1014.23
2022-10-31T08:25:14.149Z,1014.15
2022-10-31T08:26:14.130Z,1014.26
2022-10-31T08:27:14.094Z,1014.27
2022-10-31T08:28:14.083Z,1014.22
2022-10-31T08:29:14.068Z,1014.21
2022-10-31T08:30:14.052Z,1014.16
2022-10-31T08:31:14.033Z,1014.13
2022-10-31T08:32:14.020Z,1014.16
2022-10-31T08:33:14.007Z,1014.15
2022-10-31T08:34:13.993Z,1014.04
2022-10-31T08:35:13.999Z,1014.07
2022-10-31T08:36:13.962Z,1014.08
2022-10-31T08:37:13.956Z,1014.14
2022-10-31T08:38:13.942Z,1014.09
2022-10-31T08:39:13.931Z,1014.08
2022-10-31T08:40:13.905Z,1014.14
2022-10-31T08:41:13.916Z,1014.13
2022-10-31T08:42:13.880Z,1014.09
2022-10-31T08:43:13.864Z,1014.10
2022-10-31T08:44:13.844Z,1014.08
2022-10-31T08:45:13.840Z,1014.14
2022-10-31T08:46:13.816Z,1014.18
2022-10-31T08:47:13.799Z,1014.20
2022-10-31T08:48:13.799Z,1014.17
2022-10-31T08:49:13.789Z,1014.16
2022-10-31T08:50:13.760Z,1014.20
2022-10-31T08:51:13.752Z,1014.18
2022-10-31T08:52:14.676Z,1014.19
2022-10-31T08:53:13.724Z,1014.29
2022-10-31T08:54:13.736Z,1014.35
2022-10-31T08:55:13.709Z,1014.33
2022-10-31T08:56:13.680Z,1014.37
2022-10-31T08:57:13.689Z,1014.36
2022-10-31T08:58:13.655Z,1014.41
2022-10-31T08:59:13.638Z,1014.31
2022-10-31T09:00:13.629Z,1014.24
2022-10-31T09:01:13.753Z,1014.25
2022-10-31T09:02:13.751Z,1014.21
2022-10-31T09:03:13.595Z,1014.20
2022-10-31T09:04:13.580Z,1014.13
2022-10-31T09:05:13.577Z,1014.13
2022-10-31T09:06:13.615Z,1014.08
2022-10-31T09:07:21.452Z,1014.12
2022-10-31T09:08:16.657Z,1014.04
2022-10-31T09:09:13.526Z,1014.06
2022-10-31T09:10:13.511Z,1014.02
2022-10-31T09:11:13.501Z,1014.11
2022-10-31T09:12:13.499Z,1014.16
2022-10-31T09:13:13.495Z,1014.22
2022-10-31T09:14:13.461Z,1014.21
2022-10-31T09:15:13.455Z,1014.18
2022-10-31T09:16:13.447Z,1014.19
2022-10-31T09:17:13.427Z,1014.19
2022-10-31T09:18:13.415Z,1014.24
2022-10-31T09:19:13.410Z,1014.22
2022-10-31T09:20:13.403Z,1014.26
2022-10-31T09:21:13.387Z,1014.30
2022-10-31T09:22:13.374Z,1014.30
2022-10-31T09:23:13.359Z,1014.33
2022-10-31T09:24:13.341Z,1014.38
2022-10-31T09:25:13.336Z,1014.36
2022-10-31T09:26:13.317Z,1014.39
2022-10-31T09:27:13.306Z,1014.42
2022-10-31T09:28:13.305Z,1014.42
2022-10-31T09:29:13.318Z,1014.42
2022-10-31T09:30:13.290Z,1014.40
2022-10-31T09:31:13.278Z,1014.32
2022-10-31T09:32:13.257Z,1014.27
2022-10-31T09:33:13.241Z,1014.18
2022-10-31T09:34:13.231Z,1014.17
2022-10-31T09:35:13.306Z,1014.12
2022-10-31T09:36:13.212Z,1014.15
2022-10-31T09:37:13.195Z,1014.13
2022-10-31T09:38:13.188Z,1014.14
2022-10-31T09:39:13.169Z,1014.17
2022-10-31T09:40:13.167Z,1014.15
2022-10-31T09:41:15.320Z,1014.03
2022-10-31T09:42:13.132Z,1014.14
2022-10-31T09:43:13.129Z,1014.12
2022-10-31T09:44:13.109Z,1014.09
2022-10-31T09:45:13.119Z,1014.09
2022-10-31T09:46:13.088Z,1014.10
2022-10-31T09:47:13.085Z,1014.15
2022-10-31T09:48:13.076Z,1014.02
2022-10-31T09:49:13.062Z,1014.24
2022-10-31T09:50:13.058Z,1014.31
2022-10-31T09:51:13.033Z,1014.38
2022-10-31T09:52:13.064Z,1014.34
2022-10-31T09:53:13.011Z,1014.27
2022-10-31T09:54:13.003Z,1014.11
2022-10-31T09:55:12.986Z,1013.99
2022-10-31T09:56:12.979Z,1013.88
2022-10-31T09:57:12.966Z,1013.83
2022-10-31T09:58:12.961Z,1013.82
2022-10-31T09:59:12.935Z,1013.83
2022-10-31T10:00:12.927Z,1013.77
2022-10-31T10:01:13.123Z,1013.76
2022-10-31T10:02:12.917Z,1013.72
2022-10-31T10:03:12.894Z,1013.73
2022-10-31T10:04:15.638Z,1013.69
2022-10-31T10:05:12.868Z,1013.72
2022-10-31T10:06:12.852Z,1013.70
2022-10-31T10:07:12.837Z,1013.66
2022-10-31T10:08:12.822Z,1013.60
2022-10-31T10:09:12.853Z,1013.59
2022-10-31T10:10:12.813Z,1013.61
2022-10-31T10:11:12.789Z,1013.59
2022-10-31T10:12:12.769Z,1013.56
2022-10-31T10:13:13.093Z,1013.60
2022-10-31T10:14:12.749Z,1013.61
2022-10-31T10:15:12.729Z,1013.56
2022-10-31T10:16:12.714Z,1013.55
2022-10-31T10:17:12.725Z,1013.52
2022-10-31T10:18:12.694Z,1013.51
2022-10-31T10:19:12.673Z,1013.54
2022-10-31T10:20:12.828Z,1013.54
2022-10-31T10:21:12.648Z,1013.53
2022-10-31T10:22:12.633Z,1013.58
2022-10-31T10:23:12.632Z,1013.56
2022-10-31T10:24:12.606Z,1013.57
2022-10-31T10:25:12.587Z,1013.57
2022-10-31T10:26:12.578Z,1013.55
2022-10-31T10:27:12.565Z,1013.54
2022-10-31T10:28:12.561Z,1013.54
2022-10-31T10:29:12.537Z,1013.57
2022-10-31T10:30:12.522Z,1013.58
2022-10-31T10:31:12.507Z,1013.55
2022-10-31T10:32:12.494Z,1013.53
2022-10-31T10:33:12.496Z,1013.55
2022-10-31T10:34:12.468Z,1013.55
2022-10-31T10:35:12.458Z,1013.54
2022-10-31T10:36:12.442Z,1013.49
2022-10-31T10:37:12.431Z,1013.42
2022-10-31T10:38:12.410Z,1013.38
2022-10-31T10:39:12.401Z,1013.38
2022-10-31T10:40:12.388Z,1013.42
2022-10-31T10:41:12.368Z,1013.35
2022-10-31T10:42:12.368Z,1013.36
2022-10-31T10:43:12.345Z,1013.40
2022-10-31T10:44:12.328Z,1013.36
2022-10-31T10:45:12.313Z,1013.40
2022-10-31T10:46:12.303Z,1013.42
2022-10-31T10:47:12.286Z,1013.39
2022-10-31T10:48:12.270Z,1013.39
2022-10-31T10:49:12.280Z,1013.37
2022-10-31T10:50:12.255Z,1013.36
2022-10-31T10:51:25.539Z,1013.33
2022-10-31T10:52:27.079Z,1013.35
2022-10-31T10:53:12.210Z,1013.29
2022-10-31T10:54:12.195Z,1013.28
2022-10-31T10:55:12.179Z,1013.23
2022-10-31T10:56:12.170Z,1013.23
2022-10-31T10:57:12.153Z,1013.17
2022-10-31T10:58:12.141Z,1013.15
2022-10-31T10:59:12.124Z,1013.13
2022-10-31T11:00:12.259Z,1013.09
2022-10-31T11:01:12.352Z,1013.10
2022-10-31T11:02:12.089Z,1013.09
2022-10-31T11:03:12.078Z,1013.08
2022-10-31T11:04:12.061Z,1013.03
2022-10-31T11:05:12.065Z,1013.02
2022-10-31T11:06:12.033Z,1013.00
2022-10-31T11:07:12.018Z,1012.98
2022-10-31T11:08:12.006Z,1012.95
2022-10-31T11:09:11.990Z,1012.85
2022-10-31T11:10:11.980Z,1012.83
2022-10-31T11:11:11.969Z,1012.78
2022-10-31T11:12:11.962Z,1012.84
2022-10-31T11:13:11.941Z,1012.85
2022-10-31T11:14:11.943Z,1012.86
2022-10-31T11:15:11.922Z,1012.87
2022-10-31T11:16:11.904Z,1012.85
2022-10-31T11:17:11.889Z,1012.87
2022-10-31T11:18:11.922Z,1012.86
2022-10-31T11:19:11.860Z,1012.78
2022-10-31T11:20:16.249Z,1012.75
2022-10-31T11:21:11.852Z,1012.73
2022-10-31T11:22:11.821Z,1012.66
2022-10-31T11:23:12.084Z,1012.73
2022-10-31T11:24:11.794Z,1012.68
2022-10-31T11:25:11.784Z,1012.71
2022-10-31T11:26:11.769Z,1012.69
2022-10-31T11:27:11.756Z,1012.63
2022-10-31T11:28:11.739Z,1012.62
2022-10-31T11:29:11.728Z,1012.62
2022-10-31T11:30:11.714Z,1012.61
2022-10-31T11:31:11.709Z,1012.59
2022-10-31T11:32:11.687Z,1012.58
2022-10-31T11:33:11.689Z,1012.56
2022-10-31T11:34:11.659Z,1012.54
2022-10-31T11:35:11.650Z,1012.52
2022-10-31T11:36:11.637Z,1012.52
2022-10-31T11:37:11.641Z,1012.51
2022-10-31T11:38:11.610Z,1012.45
2022-10-31T11:39:11.597Z,1012.43
2022-10-31T11:40:11.582Z,1012.42
2022-10-31T11:41:11.575Z,1012.43
2022-10-31T11:42:11.562Z,1012.40
2022-10-31T11:43:11.559Z,1012.38
2022-10-31T11:44:11.533Z,1012.36
2022-10-31T11:45:11.519Z,1012.31
2022-10-31T11:46:11.505Z,1012.32
2022-10-31T11:47:11.494Z,1012.29
2022-10-31T11:48:11.481Z,1012.32
2022-10-31T11:49:11.482Z,1012.25
2022-10-31T11:50:11.460Z,1012.29
2022-10-31T11:51:11.448Z,1012.24
2022-10-31T11:52:11.436Z,1012.24
2022-10-31T11:53:11.440Z,1012.22
2022-10-31T11:54:11.407Z,1012.17
2022-10-31T11:55:11.405Z,1012.14
2022-10-31T11:56:11.390Z,1012.12
2022-10-31T11:57:11.370Z,1012.07
2022-10-31T11:58:11.354Z,1012.04
2022-10-31T11:59:11.346Z,1012.08
2022-10-31T12:00:11.339Z,1012.04
2022-10-31T12:01:11.362Z,1012.04
2022-10-31T12:02:11.434Z,1012.02
2022-10-31T12:03:11.293Z,1011.98
2022-10-31T12:04:11.284Z,1011.93
2022-10-31T12:05:11.269Z,1011.92
2022-10-31T12:06:11.256Z,1011.88
2022-10-31T12:07:11.263Z,1011.86
2022-10-31T12:08:11.228Z,1011.83
2022-10-31T12:09:11.233Z,1011.79
2022-10-31T12:10:11.203Z,1011.77
2022-10-31T12:11:11.191Z,1011.72
2022-10-31T12:12:11.174Z,1011.65
2022-10-31T12:13:11.162Z,1011.59
2022-10-31T12:14:11.148Z,1011.55
2022-10-31T12:15:11.138Z,1011.52
2022-10-31T12:16:11.120Z,1011.49
2022-10-31T12:17:11.113Z,1011.56
2022-10-31T12:18:11.091Z,1011.54
2022-10-31T12:19:11.078Z,1011.53
2022-10-31T12:20:11.062Z,1011.52
2022-10-31T12:21:11.051Z,1011.44
2022-10-31T12:22:11.046Z,1011.39
2022-10-31T12:23:11.025Z,1011.30
2022-10-31T12:24:11.003Z,1011.27
2022-10-31T12:25:11.013Z,1011.26
2022-10-31T12:26:10.985Z,1011.18
2022-10-31T12:27:10.968Z,1011.19
2022-10-31T12:28:10.947Z,1011.17
2022-10-31T12:29:10.935Z,1011.13
2022-10-31T12:30:10.927Z,1011.27